Time;durP1;ratioP1;P1;durP2;ratioP2;P2;SDS_P1;SDS_P2;PMS_P1;PMS_P2;Temp;Humidity;BMP_temperature;BMP_pressure;BME280_temperature;BME280_humidity;BME280_pressure;Samples;Min_cycle;Max_cycle;Signal;HPM_P1;HPM_P2
2023/05/11 05:31:43;;;;;;;7.38;1.75;;;;;;;9.19;96.29;96384.13;2092419;27;20683;-59
2023/05/11 05:32:44;;;;;;;4.22;1.60;;;;;;;9.20;96.44;96384.03;2089541;28;20196;-60
2023/05/11 09:52:03;;;;;;;8.18;1.75;;;;;;;12.50;87.43;96404.44;2073283;27;20557;-58
2023/05/11 09:54:19;;;;;;;6.20;1.65;;;;;;;12.48;87.00;96416.75;2082663;28;20576;-58
2023/05/11 09:56:53;;;;;;;5.85;2.08;;;;;;;12.51;87.27;96408.75;2094522;27;20576;-58
2023/05/11 09:57:57;;;;;;;3.67;2.00;;;;;;;12.42;85.96;96415.34;2089783;28;20191;-58
2023/05/11 10:00:04;;;;;;;2.90;1.50;;;;;;;12.55;86.39;96415.50;2083978;28;20570;-58
2023/05/11 10:01:05;;;;;;;4.22;1.35;;;;;;;12.46;86.35;96409.00;2076105;28;20563;-58
2023/05/11 10:03:13;;;;;;;6.50;1.75;;;;;;;12.45;85.82;96419.56;2081572;28;20571;-58
2023/05/11 10:05:40;;;;;;;1.80;1.20;;;;;;;12.48;85.88;96403.66;2085243;28;20558;-58
2023/05/11 10:06:51;;;;;;;3.55;1.50;;;;;;;12.41;87.14;96419.72;2075174;28;20748;-58
2023/05/11 10:09:10;;;;;;;3.35;1.45;;;;;;;12.75;85.35;96419.63;2116563;27;20574;-58
2023/05/11 10:10:12;;;;;;;2.35;1.20;;;;;;;12.77;85.26;96422.16;2115471;28;20541;-58
2023/05/11 10:12:39;;;;;;;6.30;1.90;;;;;;;12.67;82.89;96417.44;2100279;27;20554;-58
2023/05/11 10:13:42;;;;;;;4.93;1.27;;;;;;;12.57;84.07;96416.28;2093698;28;20768;-58
2023/05/11 10:14:44;;;;;;;5.78;1.65;;;;;;;12.32;85.54;96411.56;2089346;28;20192;-58
2023/05/11 10:15:50;;;;;;;6.88;1.20;;;;;;;12.61;85.88;96415.16;2094690;28;20248;-58
2023/05/11 10:16:54;;;;;;;4.57;1.25;;;;;;;12.73;85.92;96414.47;2082995;28;20221;-58
2023/05/11 10:17:57;;;;;;;4.18;1.42;;;;;;;12.59;85.04;96414.38;2087235;28;20265;-58
2023/05/11 10:18:59;;;;;;;2.47;1.40;;;;;;;12.80;84.46;96414.09;2090268;28;20196;-58
2023/05/11 10:20:03;;;;;;;2.88;1.70;;;;;;;12.94;84.36;96408.06;2086429;28;20324;-58
2023/05/11 10:21:04;;;;;;;3.85;1.90;;;;;;;13.14;83.70;96417.38;2091631;28;20206;-58
2023/05/11 10:22:06;;;;;;;2.67;1.45;;;;;;;12.77;83.21;96409.03;2087359;28;20208;-58
2023/05/11 10:23:10;;;;;;;3.05;1.30;;;;;;;12.76;83.53;96407.34;2078542;28;20224;-58
2023/05/11 10:24:12;;;;;;;2.45;1.38;;;;;;;12.72;85.91;96422.41;2075205;28;20573;-58
2023/05/11 10:25:14;;;;;;;3.88;1.52;;;;;;;12.74;84.97;96410.06;2078032;28;20727;-58
2023/05/11 10:26:16;;;;;;;3.78;1.58;;;;;;;12.91;84.32;96411.69;2079199;28;20851;-58
2023/05/11 10:27:19;;;;;;;3.05;1.50;;;;;;;12.86;84.04;96414.59;2079545;28;20713;-58
2023/05/11 10:28:21;;;;;;;4.25;1.92;;;;;;;12.99;84.97;96406.00;2074152;28;20201;-58
2023/05/11 10:30:33;;;;;;;2.58;1.55;;;;;;;12.39;84.82;96415.50;2082522;28;20964;-58
2023/05/11 10:31:36;;;;;;;4.32;2.05;;;;;;;12.63;85.80;96421.13;2071146;28;20232;-58
2023/05/11 10:32:38;;;;;;;3.50;1.55;;;;;;;12.64;83.19;96419.38;2071149;28;20197;-58
2023/05/11 10:33:40;;;;;;;3.88;1.88;;;;;;;12.84;82.77;96415.63;2065767;28;20202;-58
2023/05/11 10:34:43;;;;;;;3.80;1.85;;;;;;;12.80;81.84;96409.72;2066572;28;20202;-59
2023/05/11 10:35:45;;;;;;;4.35;1.40;;;;;;;12.66;84.08;96407.03;2065983;28;20690;-58
2023/05/11 10:36:47;;;;;;;4.40;1.90;;;;;;;12.82;84.57;96415.69;2063677;28;20226;-58
2023/05/11 10:37:49;;;;;;;3.00;1.80;;;;;;;13.02;84.54;96414.53;2065734;28;20389;-59
2023/05/11 10:38:51;;;;;;;4.97;1.60;;;;;;;12.96;85.77;96408.81;2065927;28;20198;-58
2023/05/11 10:39:52;;;;;;;5.22;1.65;;;;;;;12.89;85.20;96418.81;2065276;28;20558;-59
2023/05/11 10:41:01;;;;;;;3.45;1.80;;;;;;;12.94;84.57;96410.69;2065356;28;20693;-59
2023/05/11 10:42:48;;;;;;;2.92;1.63;;;;;;;13.07;84.61;96414.28;2063471;28;20241;-58
2023/05/11 10:44:11;;;;;;;3.67;2.00;;;;;;;13.23;84.51;96409.00;2062185;28;20672;-59
2023/05/11 10:45:36;;;;;;;3.10;1.90;;;;;;;13.22;83.88;96412.56;2064095;28;20668;-58
2023/05/11 10:47:07;;;;;;;5.68;1.95;;;;;;;13.07;83.13;96406.41;2066271;28;20314;-59
2023/05/11 10:48:30;;;;;;;2.85;1.77;;;;;;;13.07;83.56;96409.03;2066238;28;20701;-60
2023/05/11 10:49:45;;;;;;;6.57;1.75;;;;;;;13.00;83.82;96405.94;2065345;28;20198;-60
2023/05/11 10:51:37;;;;;;;13.23;2.25;;;;;;;12.79;84.82;96421.13;2064586;28;20198;-60
2023/05/11 10:54:09;;;;;;;3.83;1.90;;;;;;;13.00;85.11;96405.94;2086430;27;20552;-58
2023/05/11 10:56:46;;;;;;;4.78;2.08;;;;;;;12.62;85.59;96413.38;2091834;27;20669;-57
2023/05/11 10:59:34;;;;;;;9.35;2.90;;;;;;;12.79;87.08;96401.94;2092977;27;20581;-58
2023/05/11 11:01:10;;;;;;;6.65;2.10;;;;;;;12.72;87.43;96399.69;2091051;28;20192;-58
2023/05/11 11:02:12;;;;;;;3.78;2.40;;;;;;;12.84;86.46;96395.50;2072719;28;20802;-57
2023/05/11 11:03:14;;;;;;;5.63;2.55;;;;;;;12.94;86.68;96405.44;2073439;28;20258;-58
2023/05/11 11:04:16;;;;;;;9.68;2.67;;;;;;;12.93;86.92;96401.97;2073751;28;20197;-58
2023/05/11 11:05:34;;;;;;;11.85;2.85;;;;;;;12.90;86.31;96407.41;2073838;28;20265;-58
2023/05/11 11:06:38;;;;;;;3.10;2.10;;;;;;;12.41;87.33;96403.19;2071407;28;20251;-58
2023/05/11 11:08:02;;;;;;;3.38;2.45;;;;;;;12.87;86.65;96400.56;2073291;28;20205;-58
2023/05/11 11:09:12;;;;;;;5.97;2.50;;;;;;;12.68;87.24;96399.94;2072154;28;20205;-58
2023/05/11 11:10:29;;;;;;;5.78;2.00;;;;;;;13.05;85.56;96403.03;2073194;28;20279;-58
2023/05/11 11:11:38;;;;;;;4.35;2.35;;;;;;;12.74;85.10;96405.66;2071482;28;20225;-58
2023/05/11 11:13:01;;;;;;;3.38;2.33;;;;;;;12.87;84.09;96397.97;2074515;28;20232;-58
2023/05/11 11:14:04;;;;;;;7.43;2.13;;;;;;;13.36;84.37;96398.63;2072599;28;20202;-58
2023/05/11 11:15:06;;;;;;;5.10;2.20;;;;;;;13.64;83.83;96397.00;2071266;28;20210;-58
2023/05/11 11:16:08;;;;;;;5.57;2.42;;;;;;;13.24;83.53;96387.06;2069990;28;20360;-58
2023/05/11 11:17:19;;;;;;;5.30;2.22;;;;;;;13.47;84.00;96390.13;2073337;28;20287;-58
2023/05/11 11:18:29;;;;;;;4.68;2.30;;;;;;;13.27;83.47;96383.41;2074085;28;20809;-58
2023/05/11 11:19:30;;;;;;;5.15;2.92;;;;;;;13.44;83.25;96387.69;2073369;28;20212;-58
2023/05/11 11:20:47;;;;;;;4.15;2.50;;;;;;;13.80;83.29;96391.63;2072856;28;20596;-58
2023/05/11 11:21:49;;;;;;;4.38;2.47;;;;;;;13.66;81.79;96390.72;2072818;28;20221;-59
2023/05/11 11:22:50;;;;;;;6.10;2.90;;;;;;;13.76;81.42;96390.97;2073548;28;20197;-60
2023/05/11 11:23:52;;;;;;;4.47;2.50;;;;;;;13.73;82.43;96392.97;2073387;28;20330;-62
2023/05/11 11:24:53;;;;;;;5.75;4.05;;;;;;;13.87;81.88;96393.78;2073891;28;20700;-61
2023/05/11 11:25:55;;;;;;;4.85;3.00;;;;;;;14.03;80.93;96385.81;2071940;28;20197;-62
2023/05/11 11:26:56;;;;;;;6.47;1.92;;;;;;;14.24;80.08;96389.81;2071474;28;20237;-62
2023/05/11 11:27:58;;;;;;;5.45;2.78;;;;;;;14.30;80.16;96397.28;2073616;28;20212;-62
2023/05/11 11:29:10;;;;;;;4.03;2.42;;;;;;;13.96;77.75;96394.16;2073793;28;20193;-62
2023/05/11 11:30:37;;;;;;;10.75;2.83;;;;;;;14.12;78.24;96392.25;2073905;28;20202;-61
2023/05/11 11:31:40;;;;;;;6.25;2.28;;;;;;;13.70;77.65;96388.75;2073577;28;20224;-62
2023/05/11 11:32:41;;;;;;;6.70;2.53;;;;;;;13.93;78.66;96389.09;2071870;28;20193;-62
2023/05/11 11:33:46;;;;;;;3.58;2.22;;;;;;;14.20;78.94;96392.59;2072305;28;20627;-61
2023/05/11 11:34:49;;;;;;;4.22;2.22;;;;;;;14.07;79.11;96393.47;2073639;28;20649;-61
2023/05/11 11:35:51;;;;;;;5.40;2.45;;;;;;;14.22;79.32;96384.66;2073118;28;20205;-62
2023/05/11 11:36:57;;;;;;;5.07;2.25;;;;;;;14.10;78.81;96388.88;2072579;28;20217;-62
2023/05/11 11:38:04;;;;;;;3.38;2.05;;;;;;;14.01;79.06;96392.09;2076215;28;20197;-62
2023/05/11 11:39:06;;;;;;;6.28;2.10;;;;;;;14.25;79.28;96381.81;2070554;28;20213;-62
2023/05/11 11:40:08;;;;;;;4.53;2.22;;;;;;;14.39;78.21;96383.56;2071052;28;20258;-62
2023/05/11 11:41:27;;;;;;;2.70;1.85;;;;;;;14.49;77.30;96387.28;2072669;28;20193;-62
2023/05/11 11:42:29;;;;;;;5.45;1.80;;;;;;;14.48;76.55;96385.59;2074270;28;20209;-62
2023/05/11 11:43:46;;;;;;;6.45;2.03;;;;;;;14.25;77.95;96387.06;2071398;28;20826;-62
2023/05/11 11:44:47;;;;;;;5.97;2.35;;;;;;;13.74;76.67;96389.38;2073715;28;20212;-62
2023/05/11 11:45:51;;;;;;;4.43;2.45;;;;;;;13.82;75.93;96387.97;2075065;28;20240;-62
2023/05/11 11:47:15;;;;;;;5.95;2.45;;;;;;;13.91;76.92;96394.44;2073329;28;20328;-62
2023/05/11 11:48:27;;;;;;;5.53;2.05;;;;;;;14.07;77.32;96382.97;2072017;28;20198;-63
2023/05/11 11:49:28;;;;;;;5.90;2.72;;;;;;;14.36;76.19;96391.66;2071990;28;20237;-63
2023/05/11 11:50:30;;;;;;;7.93;2.10;;;;;;;14.34;76.70;96388.28;2072060;28;20193;-66
2023/05/11 11:51:33;;;;;;;3.75;2.00;;;;;;;14.34;76.57;96389.09;2073502;28;20214;-63
2023/05/11 11:52:34;;;;;;;5.60;2.25;;;;;;;14.37;74.95;96385.44;2073949;28;20208;-63
2023/05/11 11:53:36;;;;;;;3.72;1.92;;;;;;;14.37;73.53;96383.66;2073363;28;20200;-63
2023/05/11 11:54:44;;;;;;;3.67;1.83;;;;;;;14.45;73.56;96383.16;2071771;28;20251;-63
2023/05/11 11:55:50;;;;;;;5.13;2.15;;;;;;;14.15;75.80;96391.22;2073503;28;20210;-63
2023/05/11 11:56:52;;;;;;;3.95;2.20;;;;;;;14.09;76.70;96388.97;2071913;28;20250;-62
2023/05/11 11:57:53;;;;;;;11.85;5.80;;;;;;;14.27;75.98;96387.81;2072054;28;20197;-62
2023/05/11 11:58:57;;;;;;;52.50;30.40;;;;;;;14.49;74.13;96378.56;2071796;28;20210;-62
2023/05/11 11:59:59;;;;;;;56.85;32.63;;;;;;;14.51;74.54;96388.03;2071171;28;20268;-62
2023/05/11 12:01:02;;;;;;;20.45;12.20;;;;;;;14.50;74.83;96388.97;2072713;28;20229;-63
2023/05/11 12:02:04;;;;;;;10.20;5.45;;;;;;;14.55;75.00;96391.31;2073570;28;20281;-64
2023/05/11 12:03:09;;;;;;;3.65;2.20;;;;;;;14.58;75.38;96387.66;2074844;28;20197;-63
2023/05/11 12:04:32;;;;;;;4.35;2.30;;;;;;;14.31;75.69;96389.31;2072788;28;20225;-62
2023/05/11 12:05:38;;;;;;;6.55;1.92;;;;;;;14.54;74.87;96389.63;2072718;28;20197;-63
2023/05/11 12:06:41;;;;;;;5.18;1.85;;;;;;;14.74;74.53;96379.63;2071766;28;20222;-63
2023/05/11 12:07:46;;;;;;;5.38;1.65;;;;;;;14.65;72.78;96378.44;2072186;28;20198;-62
2023/05/11 12:08:47;;;;;;;5.30;2.97;;;;;;;14.71;73.92;96375.41;2073886;28;20237;-63
2023/05/11 12:09:51;;;;;;;4.00;2.10;;;;;;;14.74;74.57;96379.63;2069826;28;20714;-63
2023/05/11 12:10:53;;;;;;;4.07;1.95;;;;;;;14.88;74.01;96378.72;2066454;28;20202;-62
2023/05/11 12:11:57;;;;;;;4.63;1.90;;;;;;;14.71;73.28;96361.44;2069646;28;20564;-65
2023/05/11 12:12:59;;;;;;;6.03;1.50;;;;;;;14.53;73.74;96365.13;2068105;28;20201;-63
2023/05/11 12:14:01;;;;;;;3.85;1.50;;;;;;;14.53;72.16;96367.75;2071617;28;20663;-63
2023/05/11 12:15:05;;;;;;;2.25;1.60;;;;;;;14.67;72.37;96369.50;2071016;28;20203;-63
2023/05/11 12:16:11;;;;;;;3.15;1.70;;;;;;;14.58;73.57;96362.19;2067842;28;20853;-63
2023/05/11 12:17:15;;;;;;;4.18;1.90;;;;;;;14.57;73.21;96362.31;2066487;28;20193;-63
2023/05/11 12:18:20;;;;;;;4.93;2.20;;;;;;;14.67;72.20;96373.94;2067770;28;20695;-62
2023/05/11 12:19:23;;;;;;;2.97;1.45;;;;;;;14.47;72.28;96380.44;2067275;28;20225;-62
2023/05/11 12:20:24;;;;;;;3.03;1.50;;;;;;;14.11;73.22;96371.34;2065255;28;20823;-62
2023/05/11 12:21:28;;;;;;;3.25;1.40;;;;;;;14.21;72.09;96373.28;2067391;28;20233;-62
2023/05/11 12:22:30;;;;;;;2.85;1.20;;;;;;;14.17;71.18;96371.81;2068327;28;20208;-63
2023/05/11 12:23:31;;;;;;;5.95;1.42;;;;;;;14.15;71.65;96365.78;2068309;28;20202;-63
2023/05/11 12:24:33;;;;;;;2.33;1.40;;;;;;;14.45;71.34;96370.03;2067755;28;20197;-63
2023/05/11 12:25:34;;;;;;;3.75;1.55;;;;;;;14.64;72.50;96371.44;2066814;28;20256;-63
2023/05/11 12:26:36;;;;;;;2.50;1.42;;;;;;;15.05;71.67;96372.34;2066224;28;20485;-62
2023/05/11 12:27:59;;;;;;;7.18;1.95;;;;;;;14.87;71.47;96362.09;2066345;28;20205;-62
2023/05/11 12:29:14;;;;;;;6.55;2.05;;;;;;;14.92;69.63;96370.53;2067417;28;20205;-61
2023/05/11 12:30:31;;;;;;;2.20;1.50;;;;;;;14.19;71.75;96375.19;2067205;28;20197;-61
2023/05/11 12:31:35;;;;;;;2.40;1.10;;;;;;;14.48;70.67;96366.38;2066295;28;20292;-62
2023/05/11 12:32:37;;;;;;;2.78;1.10;;;;;;;14.55;70.48;96372.91;2066665;28;20210;-61
2023/05/11 12:33:49;;;;;;;4.28;1.17;;;;;;;14.75;69.28;96376.06;2071189;28;20225;-63
2023/05/11 12:34:59;;;;;;;2.22;1.00;;;;;;;14.74;69.64;96374.34;2066600;28;20206;-62
2023/05/11 12:36:00;;;;;;;4.43;1.52;;;;;;;14.93;70.03;96366.97;2069679;28;20237;-63
2023/05/11 12:37:05;;;;;;;2.33;1.50;;;;;;;15.01;69.78;96369.91;2067821;28;20194;-63
2023/05/11 12:38:09;;;;;;;3.25;1.30;;;;;;;15.30;69.23;96366.25;2068205;28;20248;-63
2023/05/11 12:39:22;;;;;;;5.82;1.83;;;;;;;15.52;67.88;96366.44;2065517;28;20215;-65
2023/05/11 12:40:24;;;;;;;2.75;1.45;;;;;;;15.14;68.35;96363.81;2067580;28;20208;-63
2023/05/11 12:41:26;;;;;;;3.15;1.40;;;;;;;15.25;69.10;96370.97;2065799;28;20221;-63
2023/05/11 12:42:27;;;;;;;4.95;1.77;;;;;;;15.19;69.65;96364.34;2066921;28;20198;-63
2023/05/11 12:43:29;;;;;;;2.08;1.48;;;;;;;15.10;69.42;96347.41;2065697;28;20203;-62
2023/05/11 12:44:31;;;;;;;2.40;1.50;;;;;;;15.43;69.24;96364.47;2065289;28;20194;-62
2023/05/11 12:45:33;;;;;;;5.07;1.70;;;;;;;14.96;67.72;96368.53;2067085;28;20198;-62
2023/05/11 12:46:35;;;;;;;3.90;1.85;;;;;;;15.00;70.27;96357.69;2067184;28;20228;-63
2023/05/11 12:47:37;;;;;;;4.05;1.80;;;;;;;15.47;69.59;96363.31;2065958;28;20190;-63
2023/05/11 12:48:39;;;;;;;2.90;1.30;;;;;;;15.41;68.66;96357.63;2066002;28;20228;-63
2023/05/11 12:49:42;;;;;;;4.07;1.25;;;;;;;15.74;68.25;96358.88;2068080;28;20838;-63
2023/05/11 12:50:45;;;;;;;7.85;1.42;;;;;;;15.34;66.74;96351.94;2066476;28;20203;-62
2023/05/11 12:52:07;;;;;;;7.90;1.88;;;;;;;15.28;67.87;96355.81;2065765;28;20832;-62
2023/05/11 12:53:16;;;;;;;2.20;1.20;;;;;;;15.26;67.44;96355.13;2067360;28;20201;-63
2023/05/11 12:54:39;;;;;;;7.57;1.83;;;;;;;15.45;67.12;96361.72;2066343;28;20205;-63
2023/05/11 12:55:41;;;;;;;2.40;1.25;;;;;;;15.52;68.55;96352.47;2067613;28;20193;-62
2023/05/11 12:56:47;;;;;;;2.60;1.40;;;;;;;15.44;66.35;96349.50;2066066;28;20689;-63
2023/05/11 12:57:50;;;;;;;5.28;1.30;;;;;;;15.40;66.62;96348.03;2066143;28;20278;-63
2023/05/11 12:58:51;;;;;;;2.90;1.25;;;;;;;15.66;66.05;96347.06;2066699;28;20280;-64
2023/05/11 13:00:11;;;;;;;3.00;1.38;;;;;;;15.52;67.86;96353.28;2061035;28;20234;-62
2023/05/11 13:01:13;;;;;;;4.18;1.08;;;;;;;15.51;66.31;96356.03;2065027;28;20248;-62
2023/05/11 13:02:19;;;;;;;4.80;1.10;;;;;;;15.45;65.61;96353.84;2066854;28;20304;-62
2023/05/11 13:03:26;;;;;;;8.23;1.00;;;;;;;15.19;65.05;96346.78;2066760;28;20289;-62
2023/05/11 13:04:29;;;;;;;3.08;1.27;;;;;;;15.33;65.53;96351.09;2066144;28;20297;-62
2023/05/11 13:05:30;;;;;;;2.28;1.10;;;;;;;15.09;64.74;96340.47;2065635;28;20203;-62
2023/05/11 13:06:32;;;;;;;1.95;1.05;;;;;;;14.56;66.99;96340.44;2064464;28;20246;-62
2023/05/11 13:07:33;;;;;;;3.97;1.30;;;;;;;14.62;66.24;96347.06;2065926;28;20209;-63
2023/05/11 13:08:36;;;;;;;2.72;1.40;;;;;;;14.78;66.48;96339.91;2067485;28;20201;-62
2023/05/11 13:09:38;;;;;;;2.95;1.50;;;;;;;15.07;66.12;96342.38;2070593;28;20688;-62
2023/05/11 13:10:40;;;;;;;3.08;1.13;;;;;;;15.35;66.13;96343.13;2069515;28;20194;-62
2023/05/11 13:11:41;;;;;;;2.35;1.15;;;;;;;15.40;65.45;96341.00;2065780;28;20225;-62
2023/05/11 13:12:50;;;;;;;2.85;1.55;;;;;;;15.59;65.54;96335.31;2067487;28;20604;-63
2023/05/11 13:13:54;;;;;;;2.40;1.42;;;;;;;15.54;66.32;96337.44;2067311;28;20792;-63
2023/05/11 13:15:14;;;;;;;3.88;1.88;;;;;;;15.55;67.19;96333.00;2066543;28;20226;-62
2023/05/11 13:16:31;;;;;;;2.60;1.60;;;;;;;15.33;64.34;96331.84;2064631;28;20205;-62
2023/05/11 13:17:37;;;;;;;4.55;1.42;;;;;;;15.44;65.54;96325.84;2067521;28;20201;-62
2023/05/11 13:18:58;;;;;;;4.28;1.20;;;;;;;15.19;64.41;96328.38;2065422;28;20198;-62
2023/05/11 13:20:22;;;;;;;3.95;1.10;;;;;;;14.71;65.77;96335.97;2071196;28;20550;-62
2023/05/11 13:21:24;;;;;;;4.00;1.20;;;;;;;15.04;65.77;96329.41;2069588;28;20620;-62
2023/05/11 13:22:26;;;;;;;2.75;1.10;;;;;;;15.16;65.96;96322.47;2066451;28;20202;-62
2023/05/11 13:23:29;;;;;;;5.72;1.50;;;;;;;15.52;65.97;96332.25;2064983;28;20198;-62
2023/05/11 13:24:31;;;;;;;2.58;1.00;;;;;;;15.74;65.34;96330.75;2065366;28;20742;-62
2023/05/11 13:25:52;;;;;;;3.60;1.20;;;;;;;15.83;64.63;96326.66;2066027;28;20199;-62
2023/05/11 13:26:55;;;;;;;1.80;0.90;;;;;;;15.54;63.60;96320.78;2067493;28;20221;-62
2023/05/11 13:27:56;;;;;;;2.40;0.98;;;;;;;15.76;64.57;96330.66;2067179;28;20193;-62
2023/05/11 13:28:57;;;;;;;2.67;1.30;;;;;;;15.26;65.98;96318.28;2067155;28;20549;-62
2023/05/11 13:30:12;;;;;;;3.40;1.08;;;;;;;15.79;63.73;96326.00;2066113;28;20669;-62
2023/05/11 13:31:13;;;;;;;1.50;1.00;;;;;;;15.98;62.21;96320.28;2065498;28;20198;-62
2023/05/11 13:32:15;;;;;;;3.45;1.00;;;;;;;15.98;62.99;96322.09;2067534;28;20194;-62
2023/05/11 13:33:17;;;;;;;2.10;1.00;;;;;;;16.15;62.03;96319.09;2065986;28;20206;-62
2023/05/11 13:34:19;;;;;;;2.97;1.30;;;;;;;16.21;62.61;96320.44;2065239;28;20313;-62
2023/05/11 13:35:20;;;;;;;4.45;1.10;;;;;;;15.95;62.87;96322.31;2065596;28;20292;-62
2023/05/11 13:36:22;;;;;;;4.30;1.30;;;;;;;15.99;62.73;96318.50;2065630;28;20217;-62
2023/05/11 13:37:23;;;;;;;5.80;1.40;;;;;;;16.16;62.69;96323.41;2067208;28;20878;-62
2023/05/11 13:38:25;;;;;;;3.13;1.05;;;;;;;16.39;62.14;96318.25;2065933;28;20241;-62
2023/05/11 13:39:26;;;;;;;3.17;1.00;;;;;;;16.58;61.36;96324.78;2065785;28;20289;-62
2023/05/11 13:40:27;;;;;;;5.82;1.20;;;;;;;16.68;61.37;96323.16;2066695;28;20194;-62
2023/05/11 13:41:29;;;;;;;1.83;0.88;;;;;;;16.64;61.63;96321.72;2063999;28;20229;-62
2023/05/11 13:42:31;;;;;;;1.85;0.95;;;;;;;16.72;61.42;96319.34;2064976;28;20210;-62
2023/05/11 13:43:33;;;;;;;5.72;1.38;;;;;;;16.95;61.73;96319.44;2067595;28;20701;-62
2023/05/11 13:44:34;;;;;;;4.97;1.13;;;;;;;16.73;61.97;96310.47;2070319;28;20568;-62
2023/05/11 13:45:38;;;;;;;1.85;0.95;;;;;;;16.65;60.49;96297.03;2065773;28;20197;-62
2023/05/11 13:46:40;;;;;;;3.80;1.02;;;;;;;16.84;60.72;96311.47;2065519;28;20222;-62
2023/05/11 13:47:41;;;;;;;2.00;0.95;;;;;;;16.94;60.47;96318.59;2066138;28;20251;-62
2023/05/11 13:48:46;;;;;;;1.90;0.93;;;;;;;16.64;57.94;96319.91;2066442;28;20749;-62
2023/05/11 13:49:47;;;;;;;3.47;0.95;;;;;;;16.87;58.69;96309.44;2065682;28;20220;-62
2023/05/11 13:50:56;;;;;;;1.40;0.70;;;;;;;16.81;59.44;96307.25;2065556;28;20202;-63
2023/05/11 13:51:59;;;;;;;2.65;1.00;;;;;;;16.82;58.71;96311.56;2064559;28;20586;-62
2023/05/11 13:53:00;;;;;;;1.15;0.70;;;;;;;16.63;59.42;96304.22;2064938;28;20194;-62
2023/05/11 13:54:02;;;;;;;2.30;0.90;;;;;;;16.80;59.65;96308.22;2065406;28;20213;-62
2023/05/11 13:55:04;;;;;;;3.60;1.00;;;;;;;17.07;59.63;96307.13;2065576;28;20202;-62
2023/05/11 13:56:06;;;;;;;1.60;0.80;;;;;;;17.05;59.32;96312.53;2064563;28;20201;-62
2023/05/11 13:57:07;;;;;;;2.03;1.02;;;;;;;16.93;59.63;96314.28;2065531;28;20202;-62
2023/05/11 13:58:09;;;;;;;4.93;0.90;;;;;;;17.08;59.78;96311.44;2065307;28;20202;-62
2023/05/11 13:59:10;;;;;;;5.43;1.27;;;;;;;17.20;59.38;96301.75;2066922;28;20213;-62
2023/05/11 14:00:13;;;;;;;2.67;1.05;;;;;;;16.86;60.35;96307.78;2067531;28;20685;-62
2023/05/11 14:01:15;;;;;;;1.45;1.00;;;;;;;17.08;59.81;96308.81;2066052;28;20234;-63
2023/05/11 14:02:16;;;;;;;2.85;0.90;;;;;;;17.38;59.74;96304.75;2066669;28;20293;-62
2023/05/11 14:03:19;;;;;;;3.58;1.20;;;;;;;17.50;59.51;96309.09;2067340;28;20285;-62
2023/05/11 14:04:20;;;;;;;3.35;0.90;;;;;;;17.48;58.24;96297.81;2067486;28;20281;-62
2023/05/11 14:05:22;;;;;;;2.10;0.90;;;;;;;17.35;59.18;96311.13;2066553;28;20291;-62
2023/05/11 14:06:24;;;;;;;1.75;0.95;;;;;;;17.29;59.94;96303.66;2066234;28;20221;-62
2023/05/11 14:07:26;;;;;;;2.40;1.00;;;;;;;17.19;59.61;96311.47;2066066;28;20652;-62
2023/05/11 14:08:46;;;;;;;2.35;0.90;;;;;;;16.61;60.43;96292.97;2066493;28;20205;-62
2023/05/11 14:09:49;;;;;;;2.25;1.02;;;;;;;16.73;59.93;96309.63;2064299;28;20241;-62
2023/05/11 14:10:50;;;;;;;2.15;0.80;;;;;;;15.83;60.92;96290.66;2065169;28;20194;-62
2023/05/11 14:11:52;;;;;;;2.70;0.90;;;;;;;15.94;61.49;96296.94;2065558;28;20218;-62
2023/05/11 14:12:53;;;;;;;1.80;1.00;;;;;;;16.37;61.88;96306.16;2067778;28;20199;-62
2023/05/11 14:13:55;;;;;;;2.15;1.10;;;;;;;16.54;61.74;96305.72;2067001;28;20209;-62
2023/05/11 14:14:56;;;;;;;2.08;0.80;;;;;;;16.76;61.42;96290.94;2068415;28;20206;-62
2023/05/11 14:15:58;;;;;;;2.53;1.10;;;;;;;16.60;62.32;96299.19;2066405;28;20197;-62
2023/05/11 14:16:59;;;;;;;3.13;0.90;;;;;;;16.74;60.44;96301.63;2066682;28;20222;-62
2023/05/11 14:18:03;;;;;;;2.67;0.80;;;;;;;17.03;59.91;96295.97;2065229;28;20246;-62
2023/05/11 14:19:05;;;;;;;3.72;1.00;;;;;;;16.67;58.33;96295.13;2066852;28;20194;-62
2023/05/11 14:20:07;;;;;;;2.95;1.10;;;;;;;16.46;57.84;96292.28;2065930;28;20693;-62
2023/05/11 14:21:09;;;;;;;1.73;0.90;;;;;;;16.66;55.91;96290.81;2066364;28;20209;-62
2023/05/11 14:22:10;;;;;;;1.65;1.05;;;;;;;15.82;58.90;96296.88;2065331;28;20202;-62
2023/05/11 14:23:12;;;;;;;2.95;1.08;;;;;;;14.96;62.98;96298.38;2067118;28;20638;-62
2023/05/11 14:24:13;;;;;;;4.07;1.42;;;;;;;15.50;63.47;96296.47;2067060;28;20205;-62
2023/05/11 14:25:15;;;;;;;2.88;1.20;;;;;;;15.80;63.45;96267.13;2066570;28;20222;-62
2023/05/11 14:26:16;;;;;;;2.25;1.10;;;;;;;15.97;62.33;96294.94;2065745;28;20289;-62
2023/05/11 14:27:18;;;;;;;4.38;1.00;;;;;;;16.35;61.85;96295.72;2059094;28;20667;-62
2023/05/11 14:28:19;;;;;;;5.45;1.33;;;;;;;16.54;61.36;96297.00;2060274;28;20209;-62
2023/05/11 14:29:21;;;;;;;3.00;1.20;;;;;;;16.51;61.63;96299.88;2067065;28;20213;-62
2023/05/11 14:30:23;;;;;;;4.13;0.90;;;;;;;16.41;61.90;96289.16;2067962;28;20218;-62
2023/05/11 14:31:24;;;;;;;1.40;0.90;;;;;;;16.35;60.97;96282.53;2066877;28;20259;-64
2023/05/11 14:32:26;;;;;;;1.75;1.13;;;;;;;16.38;60.44;96292.00;2066084;28;20202;-62
2023/05/11 14:33:28;;;;;;;5.72;1.20;;;;;;;15.82;61.32;96286.34;2065807;28;20349;-62
2023/05/11 14:34:30;;;;;;;4.35;1.35;;;;;;;16.16;61.94;96286.53;2065091;28;20221;-62
2023/05/11 14:35:31;;;;;;;8.23;1.00;;;;;;;16.60;62.43;96297.38;2066552;28;20186;-62
2023/05/11 14:36:33;;;;;;;3.05;1.38;;;;;;;16.78;62.46;96286.41;2063844;28;20226;-62
2023/05/11 14:37:34;;;;;;;4.55;1.10;;;;;;;16.67;62.29;96279.31;2063850;28;20194;-62
2023/05/11 14:38:36;;;;;;;2.13;0.90;;;;;;;16.51;62.90;96287.53;2065186;28;20197;-62
2023/05/11 14:39:37;;;;;;;2.05;0.98;;;;;;;16.36;62.59;96294.75;2065413;28;20241;-62
2023/05/11 14:40:38;;;;;;;3.05;1.27;;;;;;;16.46;62.03;96287.84;2066636;28;20203;-62
2023/05/11 14:41:40;;;;;;;1.70;1.00;;;;;;;16.56;62.04;96289.81;2064686;28;20233;-62
2023/05/11 14:42:41;;;;;;;1.55;0.90;;;;;;;16.50;62.69;96285.84;2065670;28;20210;-62
2023/05/11 14:43:43;;;;;;;2.40;1.35;;;;;;;16.52;63.22;96288.34;2065520;28;20229;-61
2023/05/11 14:44:45;;;;;;;6.00;1.23;;;;;;;16.41;63.13;96290.00;2065300;28;20242;-62
2023/05/11 14:45:46;;;;;;;6.95;3.00;;;;;;;16.44;63.06;96275.75;2067623;28;20213;-62
2023/05/11 14:46:48;;;;;;;2.40;1.20;;;;;;;16.49;62.58;96281.50;2066216;28;20569;-62
2023/05/11 14:47:50;;;;;;;7.28;1.10;;;;;;;16.37;62.45;96285.06;2067656;28;20225;-62
2023/05/11 14:48:51;;;;;;;4.03;1.40;;;;;;;16.43;61.77;96284.59;2064356;28;20202;-62
2023/05/11 14:49:53;;;;;;;5.20;1.50;;;;;;;16.49;61.44;96278.88;2065930;28;20205;-62
2023/05/11 14:50:54;;;;;;;3.45;1.10;;;;;;;16.54;61.55;96278.53;2066708;28;20207;-61
2023/05/11 14:51:56;;;;;;;4.28;1.10;;;;;;;16.38;61.42;96279.69;2065147;28;20226;-62
2023/05/11 14:52:58;;;;;;;2.25;1.05;;;;;;;16.16;58.80;96281.28;2066585;28;20206;-61
2023/05/11 14:54:00;;;;;;;5.43;1.10;;;;;;;15.98;59.68;96269.44;2068226;28;20194;-61
2023/05/11 14:55:01;;;;;;;1.95;0.95;;;;;;;16.04;60.16;96276.88;2064976;28;20237;-61
2023/05/11 14:56:03;;;;;;;3.95;1.55;;;;;;;14.85;62.03;96278.09;2064599;28;20672;-61
2023/05/11 14:57:05;;;;;;;2.00;1.13;;;;;;;15.06;63.47;96274.94;2066527;28;20206;-61
2023/05/11 14:58:08;;;;;;;3.72;0.95;;;;;;;15.62;63.21;96282.44;2065144;28;20255;-61
2023/05/11 14:59:09;;;;;;;4.70;1.10;;;;;;;15.39;61.80;96285.84;2066772;28;20206;-61
2023/05/11 15:00:12;;;;;;;4.45;1.00;;;;;;;14.68;62.38;96265.25;2066205;28;20332;-61
2023/05/11 15:01:14;;;;;;;2.20;1.10;;;;;;;14.82;63.66;96278.28;2064663;28;20720;-61
2023/05/11 15:02:15;;;;;;;2.10;1.05;;;;;;;14.26;62.91;96251.34;2066890;28;20210;-61
2023/05/11 15:03:17;;;;;;;1.60;0.90;;;;;;;14.01;64.58;96274.78;2065471;28;20206;-62
2023/05/11 15:04:19;;;;;;;2.30;0.98;;;;;;;14.47;65.42;96278.00;2064417;28;20285;-61
2023/05/11 15:05:21;;;;;;;2.08;1.13;;;;;;;14.68;65.90;96270.50;2065805;28;20205;-61
2023/05/11 15:06:22;;;;;;;3.10;1.20;;;;;;;14.99;65.23;96271.88;2066108;28;20222;-61
2023/05/11 15:07:24;;;;;;;3.00;1.05;;;;;;;15.32;64.81;96273.13;2066810;28;20206;-61
2023/05/11 15:08:26;;;;;;;3.05;1.10;;;;;;;15.52;63.86;96271.72;2067184;28;20233;-61
2023/05/11 15:09:31;;;;;;;6.35;1.05;;;;;;;15.65;63.21;96273.50;2066574;28;20285;-61
2023/05/11 15:10:32;;;;;;;1.60;1.00;;;;;;;15.85;62.96;96276.53;2065115;28;20206;-61